Time;durP1;ratioP1;P1;durP2;ratioP2;P2;SDS_P1;SDS_P2;PMS_P1;PMS_P2;Temp;Humidity;BMP_temperature;BMP_pressure;BME280_temperature;BME280_humidity;BME280_pressure;Samples;Min_cycle;Max_cycle;Signal;HPM_P1;HPM_P2
2024/01/04 00:01:08;;;;;;;23.63;22.10;;;;;;;;;;4166323;28;20042;-65
2024/01/04 00:03:10;;;;;;;25.67;23.10;;;;;;;;;;4161622;28;20038;-65
2024/01/04 00:05:12;;;;;;;24.50;23.27;;;;;;;;;;4156029;28;20091;-65
2024/01/04 00:07:13;;;;;;;26.20;24.23;;;;;;;;;;4166314;28;20417;-65
2024/01/04 00:09:15;;;;;;;24.23;22.67;;;;;;;;;;4168857;28;20045;-65
2024/01/04 00:11:16;;;;;;;25.87;24.07;;;;;;;;;;4166218;28;20382;-65
2024/01/04 00:13:18;;;;;;;27.83;25.90;;;;;;;;;;4166799;28;20284;-65
2024/01/04 00:15:20;;;;;;;23.43;22.27;;;;;;;;;;4166072;28;20045;-64
2024/01/04 00:17:21;;;;;;;23.92;22.17;;;;;;;;;;4166307;28;20092;-65
2024/01/04 00:19:23;;;;;;;30.10;27.97;;;;;;;;;;4166088;28;20037;-64
2024/01/04 00:21:25;;;;;;;24.55;23.10;;;;;;;;;;4166305;28;20041;-66
2024/01/04 00:23:27;;;;;;;25.13;23.50;;;;;;;;;;4166040;28;20042;-65
2024/01/04 00:25:28;;;;;;;25.58;23.70;;;;;;;;;;4165957;28;20323;-66
2024/01/04 00:27:30;;;;;;;27.57;25.70;;;;;;;;;;4166356;28;20063;-65
2024/01/04 00:29:31;;;;;;;24.37;22.63;;;;;;;;;;4166245;28;20593;-65
2024/01/04 00:31:33;;;;;;;24.55;22.80;;;;;;;;;;4148579;28;20045;-66
2024/01/04 00:33:35;;;;;;;23.15;21.70;;;;;;;;;;4148245;28;20555;-65
2024/01/04 00:35:37;;;;;;;23.60;21.92;;;;;;;;;;4166128;28;20052;-65
2024/01/04 00:37:38;;;;;;;24.50;22.67;;;;;;;;;;4165928;28;20129;-65
2024/01/04 00:39:40;;;;;;;24.87;23.13;;;;;;;;;;4165781;28;20041;-64
2024/01/04 00:41:42;;;;;;;25.92;24.05;;;;;;;;;;4148136;28;20292;-65
2024/01/04 00:43:43;;;;;;;27.00;24.50;;;;;;;;;;4165778;28;20055;-65
2024/01/04 00:45:45;;;;;;;26.10;24.10;;;;;;;;;;4165959;28;20284;-65
2024/01/04 00:47:47;;;;;;;27.13;25.10;;;;;;;;;;4148110;28;20081;-65
2024/01/04 00:49:48;;;;;;;24.55;23.00;;;;;;;;;;4165844;28;20045;-65
2024/01/04 00:51:50;;;;;;;22.27;21.27;;;;;;;;;;4149089;28;20045;-65
2024/01/04 00:53:52;;;;;;;23.45;22.35;;;;;;;;;;4178100;28;20505;-65
2024/01/04 00:55:53;;;;;;;22.33;21.17;;;;;;;;;;4165509;28;20045;-65
2024/01/04 00:57:55;;;;;;;20.30;19.53;;;;;;;;;;4165707;28;20288;-65
2024/01/04 00:59:57;;;;;;;21.20;19.60;;;;;;;;;;4165500;28;20092;-66
2024/01/04 01:01:58;;;;;;;20.30;19.37;;;;;;;;;;4165389;28;20759;-65
2024/01/04 01:04:00;;;;;;;18.80;17.97;;;;;;;;;;4165291;28;20536;-65
2024/01/04 01:06:02;;;;;;;18.38;17.55;;;;;;;;;;4165416;28;20068;-66
2024/01/04 01:08:04;;;;;;;17.13;16.73;;;;;;;;;;4166229;28;20045;-64
2024/01/04 01:10:06;;;;;;;19.45;18.35;;;;;;;;;;4167010;28;20048;-65
2024/01/04 01:12:08;;;;;;;19.52;18.85;;;;;;;;;;4164767;28;20048;-65
2024/01/04 01:14:09;;;;;;;18.45;17.30;;;;;;;;;;4161432;28;20405;-66
2024/01/04 01:16:11;;;;;;;19.55;18.80;;;;;;;;;;4165345;28;20076;-65
2024/01/04 01:18:13;;;;;;;17.85;17.35;;;;;;;;;;4165223;28;20042;-65
2024/01/04 01:20:14;;;;;;;20.05;19.45;;;;;;;;;;4165158;28;20091;-65
2024/01/04 01:22:16;;;;;;;18.37;17.77;;;;;;;;;;4165055;28;20049;-65
2024/01/04 01:24:17;;;;;;;19.40;18.35;;;;;;;;;;4165140;28;20080;-64
2024/01/04 01:26:19;;;;;;;19.30;18.63;;;;;;;;;;4165044;28;20038;-65
2024/01/04 01:28:21;;;;;;;18.17;17.47;;;;;;;;;;4165090;28;20501;-66
2024/01/04 01:30:22;;;;;;;19.27;18.67;;;;;;;;;;4164975;28;20037;-65
2024/01/04 01:32:24;;;;;;;18.83;18.30;;;;;;;;;;4165016;28;20322;-65
2024/01/04 01:34:26;;;;;;;20.50;19.47;;;;;;;;;;4164957;28;20053;-65
2024/01/04 01:36:27;;;;;;;21.33;20.73;;;;;;;;;;4165172;28;20049;-65
2024/01/04 01:38:29;;;;;;;18.45;17.83;;;;;;;;;;4165058;28;20077;-66
2024/01/04 01:40:31;;;;;;;20.60;19.98;;;;;;;;;;4164915;28;20121;-66
2024/01/04 01:42:32;;;;;;;20.00;19.30;;;;;;;;;;4165099;28;20489;-66
2024/01/04 01:44:34;;;;;;;20.20;19.73;;;;;;;;;;4164769;28;20050;-66
2024/01/04 01:46:36;;;;;;;19.63;18.97;;;;;;;;;;4164883;28;20044;-65
2024/01/04 01:48:37;;;;;;;21.63;20.83;;;;;;;;;;4164734;28;20049;-66
2024/01/04 01:50:39;;;;;;;21.90;20.83;;;;;;;;;;4164687;28;20041;-65
2024/01/04 01:52:41;;;;;;;21.13;20.13;;;;;;;;;;4172804;28;20025;-66
2024/01/04 01:54:43;;;;;;;21.95;20.98;;;;;;;;;;4171480;28;20041;-66
2024/01/04 01:56:45;;;;;;;22.00;20.97;;;;;;;;;;4164725;28;20091;-65
2024/01/04 01:58:47;;;;;;;22.17;21.27;;;;;;;;;;4163808;28;20080;-65
2024/01/04 02:00:49;;;;;;;22.77;21.80;;;;;;;;;;4164913;28;20429;-61
2024/01/04 02:02:51;;;;;;;23.15;22.08;;;;;;;;;;4178759;22;20218;-60
2024/01/04 02:04:53;;;;;;;23.45;22.67;;;;;;;;;;4149392;28;20045;-60
2024/01/04 02:06:54;;;;;;;23.05;22.10;;;;;;;;;;4164444;28;20065;-61
2024/01/04 02:08:56;;;;;;;23.40;22.27;;;;;;;;;;4169071;28;20065;-61
2024/01/04 02:10:59;;;;;;;23.02;22.23;;;;;;;;;;4164480;28;20057;-60
2024/01/04 02:13:00;;;;;;;21.13;20.40;;;;;;;;;;4164671;28;20037;-60
2024/01/04 02:15:02;;;;;;;22.87;22.10;;;;;;;;;;4164612;28;20302;-60
2024/01/04 02:17:04;;;;;;;23.85;22.65;;;;;;;;;;4163731;28;20056;-60
2024/01/04 02:19:07;;;;;;;23.70;22.58;;;;;;;;;;4170016;28;20045;-61
2024/01/04 02:21:09;;;;;;;23.63;21.92;;;;;;;;;;4179352;28;20048;-60
2024/01/04 02:23:15;;;;;;;22.33;21.60;;;;;;;;;;4164269;28;20515;-60
2024/01/04 02:25:17;;;;;;;23.27;22.30;;;;;;;;;;4164447;28;20128;-61
2024/01/04 02:27:18;;;;;;;21.20;20.20;;;;;;;;;;4163284;28;20037;-61
2024/01/04 02:29:20;;;;;;;22.27;21.38;;;;;;;;;;4164191;28;20072;-60
2024/01/04 02:31:21;;;;;;;23.90;22.63;;;;;;;;;;4164353;28;20045;-60
2024/01/04 02:33:23;;;;;;;25.13;23.60;;;;;;;;;;4164447;28;20123;-61
2024/01/04 02:35:25;;;;;;;23.17;22.33;;;;;;;;;;4164615;28;20041;-61
2024/01/04 02:37:26;;;;;;;22.47;21.47;;;;;;;;;;4164578;28;20064;-61
2024/01/04 02:39:28;;;;;;;21.43;20.53;;;;;;;;;;4164083;28;20038;-60
2024/01/04 02:41:30;;;;;;;24.20;23.20;;;;;;;;;;4164071;28;20034;-60
2024/01/04 02:43:31;;;;;;;22.63;21.63;;;;;;;;;;4164326;28;20316;-61
2024/01/04 02:45:33;;;;;;;23.35;22.40;;;;;;;;;;4164104;28;20045;-61
2024/01/04 02:47:36;;;;;;;23.25;22.17;;;;;;;;;;4164111;28;20042;-61
2024/01/04 02:49:38;;;;;;;21.88;20.95;;;;;;;;;;4164164;28;20037;-62
2024/01/04 02:51:40;;;;;;;23.25;22.42;;;;;;;;;;4178729;28;20064;-61
2024/01/04 02:53:41;;;;;;;24.10;23.27;;;;;;;;;;4162995;28;20412;-62
2024/01/04 02:55:43;;;;;;;24.70;23.45;;;;;;;;;;4162586;28;20331;-61
2024/01/04 02:57:45;;;;;;;23.97;22.03;;;;;;;;;;4162502;28;20053;-62
2024/01/04 02:59:46;;;;;;;22.33;21.70;;;;;;;;;;4162559;28;20041;-61
2024/01/04 03:01:49;;;;;;;22.10;20.77;;;;;;;;;;4161833;28;20041;-61
2024/01/04 03:03:51;;;;;;;21.85;20.80;;;;;;;;;;4162477;28;20323;-61
2024/01/04 03:05:54;;;;;;;;;;;;;;;;;;4162531;28;20497;-62
2024/01/04 03:07:55;;;;;;;23.90;22.88;;;;;;;;;;4162546;28;19928;-61
2024/01/04 03:09:58;;;;;;;23.40;22.27;;;;;;;;;;4161873;28;20053;-61
2024/01/04 03:11:59;;;;;;;22.85;21.48;;;;;;;;;;4163872;28;20500;-61
2024/01/04 03:14:01;;;;;;;22.30;21.80;;;;;;;;;;4163803;28;20041;-61
2024/01/04 03:16:03;;;;;;;21.37;20.40;;;;;;;;;;4163790;28;20103;-62
2024/01/04 03:18:04;;;;;;;23.02;21.83;;;;;;;;;;4163852;28;20449;-61
2024/01/04 03:20:07;;;;;;;23.83;22.50;;;;;;;;;;4163867;28;20092;-61
2024/01/04 03:22:09;;;;;;;21.38;20.88;;;;;;;;;;4163981;28;20042;-61
2024/01/04 03:24:10;;;;;;;22.40;21.20;;;;;;;;;;4163754;28;20509;-61
2024/01/04 03:26:12;;;;;;;20.45;19.40;;;;;;;;;;4163724;28;20076;-61
2024/01/04 03:28:14;;;;;;;21.97;20.70;;;;;;;;;;4163820;28;20099;-61
2024/01/04 03:30:15;;;;;;;20.98;20.05;;;;;;;;;;4163925;28;20296;-61
2024/01/04 03:32:17;;;;;;;20.10;19.33;;;;;;;;;;4163754;28;20050;-61
2024/01/04 03:34:19;;;;;;;19.77;19.07;;;;;;;;;;4164975;28;20071;-61
2024/01/04 03:36:20;;;;;;;19.50;19.00;;;;;;;;;;4166893;28;20045;-61
2024/01/04 03:38:22;;;;;;;21.63;20.53;;;;;;;;;;4166692;28;20041;-61
2024/01/04 03:40:24;;;;;;;21.00;20.00;;;;;;;;;;4166737;28;20045;-61
2024/01/04 03:42:25;;;;;;;19.38;19.02;;;;;;;;;;4166767;28;20648;-62
2024/01/04 03:44:27;;;;;;;19.53;18.33;;;;;;;;;;4166608;28;20498;-61
2024/01/04 03:46:29;;;;;;;20.37;19.57;;;;;;;;;;4166616;28;20357;-61
2024/01/04 03:48:30;;;;;;;19.30;18.30;;;;;;;;;;4166685;28;20080;-61
2024/01/04 03:50:32;;;;;;;17.98;17.27;;;;;;;;;;4166623;28;20046;-61
2024/01/04 03:52:34;;;;;;;19.48;18.42;;;;;;;;;;4168002;28;20046;-61
2024/01/04 03:54:36;;;;;;;19.03;18.23;;;;;;;;;;4166516;28;20052;-61
2024/01/04 03:56:38;;;;;;;19.17;18.23;;;;;;;;;;4166774;28;20041;-61
2024/01/04 03:58:39;;;;;;;19.67;19.02;;;;;;;;;;4166619;28;20064;-61
2024/01/04 04:00:41;;;;;;;20.60;19.70;;;;;;;;;;4166007;28;20435;-61
2024/01/04 04:02:42;;;;;;;20.63;19.57;;;;;;;;;;4166069;28;20081;-61
2024/01/04 04:04:44;;;;;;;20.30;19.15;;;;;;;;;;4165080;28;20279;-61
2024/01/04 04:06:46;;;;;;;19.47;18.57;;;;;;;;;;4166593;28;20071;-61
2024/01/04 04:08:48;;;;;;;19.30;18.38;;;;;;;;;;4173153;28;20287;-61
2024/01/04 04:10:49;;;;;;;20.17;19.38;;;;;;;;;;4166580;28;20048;-61
2024/01/04 04:12:51;;;;;;;21.23;20.00;;;;;;;;;;4166319;28;20099;-61
2024/01/04 04:14:53;;;;;;;20.40;19.70;;;;;;;;;;4166090;28;20072;-61
2024/01/04 04:16:54;;;;;;;20.30;19.33;;;;;;;;;;4166445;28;20038;-61
2024/01/04 04:18:56;;;;;;;21.10;20.30;;;;;;;;;;4166310;28;20494;-62
2024/01/04 04:20:58;;;;;;;22.33;20.80;;;;;;;;;;4166795;28;20048;-61
2024/01/04 04:23:00;;;;;;;21.43;20.30;;;;;;;;;;4166162;28;20052;-61
2024/01/04 04:25:01;;;;;;;21.95;20.88;;;;;;;;;;4166150;28;20414;-61
2024/01/04 04:27:03;;;;;;;19.13;18.53;;;;;;;;;;4166389;28;20397;-61
2024/01/04 04:29:04;;;;;;;21.30;20.00;;;;;;;;;;4166188;28;20119;-61
2024/01/04 04:31:11;;;;;;;21.70;20.17;;;;;;;;;;4181173;28;20053;-61
2024/01/04 04:33:12;;;;;;;21.13;20.23;;;;;;;;;;4166151;28;20387;-61
2024/01/04 04:35:14;;;;;;;20.38;19.35;;;;;;;;;;4165915;28;20045;-61
2024/01/04 04:37:16;;;;;;;20.07;18.93;;;;;;;;;;4166013;28;20042;-62
2024/01/04 04:39:17;;;;;;;21.13;20.25;;;;;;;;;;4165820;28;20615;-61
2024/01/04 04:41:19;;;;;;;21.75;20.40;;;;;;;;;;4165978;28;20592;-61
2024/01/04 04:43:20;;;;;;;21.23;19.88;;;;;;;;;;4165947;28;20046;-61
2024/01/04 04:45:22;;;;;;;21.40;19.87;;;;;;;;;;4165778;28;20079;-60
2024/01/04 04:47:24;;;;;;;20.25;19.65;;;;;;;;;;4164463;28;20053;-61
2024/01/04 04:49:28;;;;;;;20.23;19.27;;;;;;;;;;4165738;28;20044;-60
2024/01/04 04:51:30;;;;;;;20.25;19.30;;;;;;;;;;4165858;28;20087;-61
2024/01/04 04:53:31;;;;;;;21.08;19.95;;;;;;;;;;4167976;28;20038;-61
2024/01/04 04:55:33;;;;;;;20.80;19.87;;;;;;;;;;4165398;28;20041;-61
2024/01/04 04:57:35;;;;;;;22.08;20.73;;;;;;;;;;4164286;28;20084;-61
2024/01/04 04:59:36;;;;;;;23.45;21.70;;;;;;;;;;4165280;28;20034;-61
2024/01/04 05:01:40;;;;;;;22.23;21.05;;;;;;;;;;4164849;28;20117;-60
2024/01/04 05:03:41;;;;;;;20.25;19.23;;;;;;;;;;4165571;28;20034;-61
2024/01/04 05:05:44;;;;;;;20.67;19.73;;;;;;;;;;4164415;28;20134;-61
2024/01/04 05:07:46;;;;;;;22.08;20.85;;;;;;;;;;4165370;28;20045;-61
2024/01/04 05:09:47;;;;;;;21.27;20.33;;;;;;;;;;4172962;28;20042;-61
2024/01/04 05:11:49;;;;;;;21.87;20.93;;;;;;;;;;4165372;28;20520;-60
2024/01/04 05:13:51;;;;;;;21.40;20.10;;;;;;;;;;4165487;28;20637;-61
2024/01/04 05:15:52;;;;;;;20.75;19.42;;;;;;;;;;4165274;28;20280;-61
2024/01/04 05:17:54;;;;;;;23.37;21.73;;;;;;;;;;4165463;28;20045;-62
2024/01/04 05:19:56;;;;;;;24.88;22.38;;;;;;;;;;4166273;28;20038;-61
2024/01/04 05:21:58;;;;;;;24.80;22.85;;;;;;;;;;4165457;28;20037;-61
2024/01/04 05:23:59;;;;;;;23.30;22.00;;;;;;;;;;4165396;28;20037;-60
2024/01/04 05:26:02;;;;;;;20.43;19.47;;;;;;;;;;4165187;28;20037;-60
2024/01/04 05:28:04;;;;;;;21.30;20.35;;;;;;;;;;4165033;28;20413;-61
2024/01/04 05:30:12;;;;;;;19.77;18.85;;;;;;;;;;4165043;28;20045;-61
2024/01/04 05:32:14;;;;;;;22.80;21.23;;;;;;;;;;4164219;28;20125;-61
2024/01/04 05:34:16;;;;;;;22.70;21.65;;;;;;;;;;4164832;28;20497;-62
2024/01/04 05:36:18;;;;;;;22.70;21.17;;;;;;;;;;4164988;28;20056;-61
2024/01/04 05:38:19;;;;;;;24.20;22.80;;;;;;;;;;4164942;28;20041;-61
2024/01/04 05:40:21;;;;;;;24.23;22.73;;;;;;;;;;4164858;28;20127;-61
2024/01/04 05:42:23;;;;;;;23.10;21.83;;;;;;;;;;4165160;28;20351;-61
2024/01/04 05:44:24;;;;;;;21.33;20.17;;;;;;;;;;4164872;28;20029;-61
2024/01/04 05:46:26;;;;;;;23.93;22.50;;;;;;;;;;4164803;28;20037;-61
2024/01/04 05:48:27;;;;;;;23.80;22.40;;;;;;;;;;4164929;28;20095;-61
2024/01/04 05:50:29;;;;;;;25.35;23.45;;;;;;;;;;4164912;28;20091;-61
2024/01/04 05:52:31;;;;;;;22.85;21.42;;;;;;;;;;4168030;28;20041;-60
2024/01/04 05:54:32;;;;;;;21.80;20.80;;;;;;;;;;4163855;28;20049;-61
2024/01/04 05:56:34;;;;;;;22.27;21.15;;;;;;;;;;4163955;28;20296;-60
2024/01/04 05:58:35;;;;;;;23.27;22.08;;;;;;;;;;4164405;28;20045;-60
2024/01/04 06:00:37;;;;;;;20.70;19.90;;;;;;;;;;4164215;28;20148;-60
2024/01/04 06:02:39;;;;;;;21.83;20.52;;;;;;;;;;4164069;28;20088;-60
2024/01/04 06:04:41;;;;;;;19.17;18.50;;;;;;;;;;4164605;28;20045;-61
2024/01/04 06:06:42;;;;;;;22.27;21.10;;;;;;;;;;4164393;28;20320;-60
2024/01/04 06:08:44;;;;;;;21.13;19.50;;;;;;;;;;4170420;28;20044;-60
2024/01/04 06:10:46;;;;;;;22.13;21.07;;;;;;;;;;4166277;28;20280;-61
2024/01/04 06:12:47;;;;;;;23.90;22.23;;;;;;;;;;4164132;28;20493;-61
2024/01/04 06:14:50;;;;;;;21.00;19.30;;;;;;;;;;4148498;28;20281;-61
2024/01/04 06:16:52;;;;;;;22.83;21.63;;;;;;;;;;4164071;28;20048;-61
2024/01/04 06:18:54;;;;;;;22.63;21.33;;;;;;;;;;4163872;28;20092;-61
2024/01/04 06:20:56;;;;;;;21.67;20.55;;;;;;;;;;4164234;28;20091;-60
2024/01/04 06:22:57;;;;;;;25.98;23.50;;;;;;;;;;4164709;28;20087;-62
2024/01/04 06:24:59;;;;;;;23.73;21.35;;;;;;;;;;4164452;28;20436;-60
2024/01/04 06:27:01;;;;;;;24.27;22.45;;;;;;;;;;4164101;28;20041;-61
2024/01/04 06:29:03;;;;;;;21.63;19.80;;;;;;;;;;4164366;28;20037;-61
2024/01/04 06:31:04;;;;;;;20.47;18.67;;;;;;;;;;4164022;28;20287;-61
2024/01/04 06:33:06;;;;;;;24.60;23.27;;;;;;;;;;4164082;28;20280;-61
2024/01/04 06:35:08;;;;;;;24.40;23.17;;;;;;;;;;4164275;28;20073;-60
2024/01/04 06:37:10;;;;;;;25.80;24.30;;;;;;;;;;4164345;28;20045;-60
2024/01/04 06:39:12;;;;;;;21.60;20.48;;;;;;;;;;4163903;28;20300;-60
2024/01/04 06:41:14;;;;;;;23.52;22.15;;;;;;;;;;4164232;28;20065;-61
2024/01/04 06:43:16;;;;;;;25.03;23.17;;;;;;;;;;4164074;28;20172;-61
2024/01/04 06:45:17;;;;;;;25.10;23.67;;;;;;;;;;4164012;28;20071;-61
2024/01/04 06:47:19;;;;;;;26.00;24.13;;;;;;;;;;4164073;28;20034;-61
2024/01/04 06:49:20;;;;;;;24.20;22.80;;;;;;;;;;4163900;28;20041;-61
2024/01/04 06:51:22;;;;;;;22.58;21.17;;;;;;;;;;4163639;28;20132;-60
2024/01/04 06:53:24;;;;;;;22.53;21.53;;;;;;;;;;4168334;28;20041;-60
2024/01/04 06:55:25;;;;;;;24.87;22.97;;;;;;;;;;4163938;28;20296;-61
2024/01/04 06:57:27;;;;;;;53.10;41.37;;;;;;;;;;4163909;28;20292;-61
2024/01/04 06:59:29;;;;;;;49.73;42.77;;;;;;;;;;4163727;28;20136;-60
2024/01/04 07:01:30;;;;;;;29.20;26.30;;;;;;;;;;4163662;28;20045;-60
2024/01/04 07:03:32;;;;;;;30.43;27.33;;;;;;;;;;4163870;28;20041;-61
2024/01/04 07:05:34;;;;;;;32.67;29.63;;;;;;;;;;4163864;28;20170;-60
2024/01/04 07:07:36;;;;;;;28.17;25.95;;;;;;;;;;4162524;28;20045;-61
2024/01/04 07:09:37;;;;;;;28.67;26.08;;;;;;;;;;4177111;28;20053;-61
2024/01/04 07:11:39;;;;;;;27.88;25.88;;;;;;;;;;4167111;28;20037;-60
2024/01/04 07:13:41;;;;;;;29.08;26.60;;;;;;;;;;4167368;28;20073;-61
2024/01/04 07:15:42;;;;;;;25.43;23.60;;;;;;;;;;4167255;28;20073;-60
2024/01/04 07:17:44;;;;;;;25.48;23.77;;;;;;;;;;4167341;28;20077;-61
2024/01/04 07:19:46;;;;;;;28.60;26.90;;;;;;;;;;4166888;28;20049;-60
2024/01/04 07:21:48;;;;;;;27.73;25.45;;;;;;;;;;4166947;28;20497;-60
2024/01/04 07:23:50;;;;;;;26.80;25.10;;;;;;;;;;4167178;28;20505;-60
2024/01/04 07:25:51;;;;;;;25.83;24.48;;;;;;;;;;4166918;28;20473;-60
2024/01/04 07:27:53;;;;;;;26.37;25.00;;;;;;;;;;4167196;28;20050;-60
2024/01/04 07:29:55;;;;;;;27.88;25.70;;;;;;;;;;4166829;28;20053;-60
2024/01/04 07:31:57;;;;;;;36.58;33.15;;;;;;;;;;4167088;28;20045;-60
2024/01/04 07:33:59;;;;;;;29.75;27.63;;;;;;;;;;4166897;28;20081;-60
2024/01/04 07:36:02;;;;;;;28.02;26.48;;;;;;;;;;4166777;28;20041;-60
2024/01/04 07:38:04;;;;;;;;;;;;;;;;;;4167265;28;20103;-60
2024/01/04 07:40:06;;;;;;;26.42;24.90;;;;;;;;;;4166610;28;19921;-60
2024/01/04 07:42:08;;;;;;;25.55;23.50;;;;;;;;;;4166791;28;20049;-60
2024/01/04 07:44:10;;;;;;;29.42;26.90;;;;;;;;;;4166950;28;20037;-60
2024/01/04 07:46:12;;;;;;;30.75;28.38;;;;;;;;;;4166677;28;20041;-60
2024/01/04 07:48:13;;;;;;;35.53;31.40;;;;;;;;;;4166486;28;20095;-60
2024/01/04 07:50:15;;;;;;;48.22;34.65;;;;;;;;;;4166801;28;20049;-60
2024/01/04 07:52:17;;;;;;;41.63;36.30;;;;;;;;;;4171372;28;20037;-62
2024/01/04 07:54:19;;;;;;;33.35;30.67;;;;;;;;;;4167024;28;20580;-62
2024/01/04 07:56:21;;;;;;;35.10;31.30;;;;;;;;;;4166560;28;20448;-62
2024/01/04 07:58:22;;;;;;;33.72;30.63;;;;;;;;;;4166385;28;20056;-62
2024/01/04 08:00:24;;;;;;;30.52;27.77;;;;;;;;;;4166421;28;20068;-62
2024/01/04 08:02:28;;;;;;;28.50;27.10;;;;;;;;;;4166243;28;20084;-62
2024/01/04 08:04:30;;;;;;;30.63;27.70;;;;;;;;;;4166354;28;20095;-62
2024/01/04 08:06:32;;;;;;;31.03;28.27;;;;;;;;;;4166371;28;20042;-62
2024/01/04 08:08:33;;;;;;;33.77;30.17;;;;;;;;;;4171350;28;20284;-62
2024/01/04 08:10:35;;;;;;;44.17;34.55;;;;;;;;;;4172149;28;20700;-62
2024/01/04 08:12:40;;;;;;;35.57;32.00;;;;;;;;;;4164963;28;20045;-62
2024/01/04 08:14:41;;;;;;;46.35;32.83;;;;;;;;;;4166101;28;20370;-62
2024/01/04 08:16:43;;;;;;;37.13;32.47;;;;;;;;;;4166140;28;20581;-62
2024/01/04 08:18:45;;;;;;;39.13;31.53;;;;;;;;;;4166292;28;20131;-62
2024/01/04 08:20:49;;;;;;;30.02;26.85;;;;;;;;;;4165517;28;20037;-62
2024/01/04 08:22:51;;;;;;;27.17;25.00;;;;;;;;;;4166126;28;20045;-62
2024/01/04 08:24:53;;;;;;;28.73;25.67;;;;;;;;;;4166103;28;20124;-62
2024/01/04 08:26:54;;;;;;;33.10;26.25;;;;;;;;;;4166244;28;20088;-62
2024/01/04 08:28:56;;;;;;;25.02;22.90;;;;;;;;;;4164935;28;20425;-63
2024/01/04 08:30:58;;;;;;;28.17;26.30;;;;;;;;;;4166137;28;20042;-62
2024/01/04 08:33:02;;;;;;;29.73;26.35;;;;;;;;;;4166100;28;20440;-62
2024/01/04 08:35:04;;;;;;;25.83;23.73;;;;;;;;;;4166285;28;20099;-62
2024/01/04 08:37:06;;;;;;;28.27;25.67;;;;;;;;;;4166116;28;20057;-61
2024/01/04 08:39:07;;;;;;;25.87;24.03;;;;;;;;;;4166162;28;20044;-62
2024/01/04 08:41:09;;;;;;;25.95;23.58;;;;;;;;;;4165820;28;20045;-62
2024/01/04 08:43:11;;;;;;;23.33;21.63;;;;;;;;;;4165669;28;20509;-62
2024/01/04 08:45:12;;;;;;;24.08;22.30;;;;;;;;;;4165845;28;20065;-62
2024/01/04 08:47:14;;;;;;;25.08;22.80;;;;;;;;;;4166394;28;20037;-62
2024/01/04 08:49:16;;;;;;;25.80;23.63;;;;;;;;;;4165879;28;20041;-62
2024/01/04 08:51:18;;;;;;;24.20;22.25;;;;;;;;;;4165628;28;20045;-62
2024/01/04 08:53:20;;;;;;;25.33;23.30;;;;;;;;;;4172415;28;20056;-62
2024/01/04 08:55:22;;;;;;;25.02;22.80;;;;;;;;;;4165756;28;20038;-62
2024/01/04 08:57:24;;;;;;;25.63;23.75;;;;;;;;;;4180820;28;20084;-62
2024/01/04 08:59:26;;;;;;;24.02;21.95;;;;;;;;;;4165661;28;20136;-62
2024/01/04 09:01:27;;;;;;;25.08;22.88;;;;;;;;;;4165244;28;20397;-62
2024/01/04 09:03:29;;;;;;;25.88;21.92;;;;;;;;;;4165426;28;20050;-60
2024/01/04 09:05:31;;;;;;;21.42;18.75;;;;;;;;;;4165379;28;20125;-60
2024/01/04 09:07:33;;;;;;;19.23;17.65;;;;;;;;;;4165326;28;20087;-61
2024/01/04 09:09:35;;;;;;;20.80;18.80;;;;;;;;;;4177426;28;20041;-61
2024/01/04 09:11:41;;;;;;;20.55;18.23;;;;;;;;;;4165429;28;20045;-60
2024/01/04 09:13:47;;;;;;;23.15;20.80;;;;;;;;;;4165490;28;20037;-60
2024/01/04 09:15:48;;;;;;;22.77;20.58;;;;;;;;;;4165068;28;20038;-60
2024/01/04 09:17:50;;;;;;;23.57;21.13;;;;;;;;;;4165431;28;20042;-60
2024/01/04 09:19:52;;;;;;;21.42;19.80;;;;;;;;;;4165072;28;20037;-60
2024/01/04 09:21:53;;;;;;;24.17;21.77;;;;;;;;;;4165131;28;20037;-61
2024/01/04 09:23:55;;;;;;;23.55;20.42;;;;;;;;;;4165106;28;20045;-60
2024/01/04 09:25:57;;;;;;;22.77;20.80;;;;;;;;;;4165237;28;20588;-61
2024/01/04 09:27:58;;;;;;;21.48;19.73;;;;;;;;;;4165370;28;20288;-61
2024/01/04 09:30:00;;;;;;;20.37;18.77;;;;;;;;;;4165216;28;20041;-61
2024/01/04 09:32:02;;;;;;;20.33;18.90;;;;;;;;;;4164031;28;20041;-60
2024/01/04 09:34:04;;;;;;;24.83;19.13;;;;;;;;;;4165030;28;20564;-61
2024/01/04 09:36:07;;;;;;;20.73;18.75;;;;;;;;;;4164994;28;20132;-60
2024/01/04 09:38:09;;;;;;;22.73;20.05;;;;;;;;;;4164920;28;20069;-61
2024/01/04 09:40:11;;;;;;;22.30;20.10;;;;;;;;;;4164965;28;20124;-61
2024/01/04 09:42:14;;;;;;;19.92;18.02;;;;;;;;;;4164936;28;20542;-60
2024/01/04 09:44:16;;;;;;;19.35;17.98;;;;;;;;;;4165002;28;20493;-60
2024/01/04 09:46:19;;;;;;;21.00;17.30;;;;;;;;;;4163610;28;20509;-60
2024/01/04 09:48:22;;;;;;;22.70;18.20;;;;;;;;;;4165060;28;20038;-61
2024/01/04 09:50:34;;;;;;;21.40;19.42;;;;;;;;;;4164552;28;20048;-60
2024/01/04 09:52:37;;;;;;;19.33;17.38;;;;;;;;;;4172320;28;20067;-61
2024/01/04 09:54:42;;;;;;;18.02;16.40;;;;;;;;;;4149708;28;20046;-61
2024/01/04 09:56:46;;;;;;;20.40;18.77;;;;;;;;;;4164905;28;20045;-60
2024/01/04 09:58:48;;;;;;;19.13;17.17;;;;;;;;;;4164560;28;20515;-61
2024/01/04 10:00:50;;;;;;;22.63;15.65;;;;;;;;;;4164453;28;20370;-62
2024/01/04 10:02:52;;;;;;;16.75;13.07;;;;;;;;;;4164428;28;20045;-61
2024/01/04 10:04:57;;;;;;;13.88;10.73;;;;;;;;;;4164474;28;20033;-61
2024/01/04 10:07:01;;;;;;;15.70;9.48;;;;;;;;;;4164482;28;20142;-61
2024/01/04 10:09:04;;;;;;;13.32;10.30;;;;;;;;;;4173393;28;20037;-61
2024/01/04 10:11:16;;;;;;;20.60;11.63;;;;;;;;;;4168282;28;20079;-61
2024/01/04 10:13:18;;;;;;;10.63;8.48;;;;;;;;;;4164737;28;20444;-61
2024/01/04 10:15:20;;;;;;;7.72;7.10;;;;;;;;;;4155303;28;20099;-61
2024/01/04 10:17:22;;;;;;;12.50;7.22;;;;;;;;;;4164300;28;20048;-61
2024/01/04 10:19:24;;;;;;;8.10;5.40;;;;;;;;;;4164187;28;20658;-61
2024/01/04 10:21:34;;;;;;;7.05;4.97;;;;;;;;;;4164409;28;20045;-60
2024/01/04 10:23:36;;;;;;;12.85;9.45;;;;;;;;;;4164534;28;20095;-61
2024/01/04 10:25:37;;;;;;;12.97;11.47;;;;;;;;;;4164469;28;20053;-61
2024/01/04 10:27:39;;;;;;;15.20;13.83;;;;;;;;;;4164242;28;20508;-60
2024/01/04 10:29:43;;;;;;;16.10;14.63;;;;;;;;;;4164391;28;20315;-60
2024/01/04 10:31:46;;;;;;;17.63;15.65;;;;;;;;;;4164274;28;20330;-60
2024/01/04 10:33:54;;;;;;;15.23;13.63;;;;;;;;;;4164051;28;20104;-61
2024/01/04 10:36:06;;;;;;;13.65;12.38;;;;;;;;;;4163911;28;20063;-61
2024/01/04 10:38:08;;;;;;;15.40;14.38;;;;;;;;;;4164129;28;20052;-61
2024/01/04 10:40:10;;;;;;;14.98;13.60;;;;;;;;;;4163885;28;20440;-61
2024/01/04 10:42:12;;;;;;;16.70;15.23;;;;;;;;;;4164153;28;20038;-61
2024/01/04 10:44:14;;;;;;;13.20;12.20;;;;;;;;;;4164012;28;20057;-61
2024/01/04 10:46:16;;;;;;;14.10;11.88;;;;;;;;;;4163429;28;20068;-61
2024/01/04 10:48:17;;;;;;;11.98;11.00;;;;;;;;;;4163333;28;20049;-61
2024/01/04 10:50:22;;;;;;;11.60;10.65;;;;;;;;;;4162082;28;20088;-61
2024/01/04 10:52:27;;;;;;;16.67;6.40;;;;;;;;;;4167203;28;20065;-61
2024/01/04 10:54:33;;;;;;;9.25;6.35;;;;;;;;;;4163618;28;20072;-61
2024/01/04 10:56:35;;;;;;;26.65;10.70;;;;;;;;;;4161801;28;20037;-61
2024/01/04 10:58:37;;;;;;;9.95;9.07;;;;;;;;;;4161704;28;20042;-61
2024/01/04 11:00:40;;;;;;;7.63;5.50;;;;;;;;;;4163377;28;20436;-62
2024/01/04 11:02:43;;;;;;;8.05;6.28;;;;;;;;;;4163446;28;20041;-61
2024/01/04 11:04:45;;;;;;;6.10;5.45;;;;;;;;;;4164683;28;20041;-61
2024/01/04 11:06:47;;;;;;;9.48;8.65;;;;;;;;;;4164691;28;20045;-61
2024/01/04 11:08:50;;;;;;;10.52;9.55;;;;;;;;;;4170756;28;20033;-61
2024/01/04 11:10:52;;;;;;;;;;;;;;;;;;4167402;28;20050;-61
2024/01/04 11:12:55;;;;;;;13.80;12.80;;;;;;;;;;4163996;28;20014;-62
2024/01/04 11:14:56;;;;;;;10.63;10.07;;;;;;;;;;4163284;28;20103;-61
2024/01/04 11:17:07;;;;;;;10.60;9.80;;;;;;;;;;4163883;28;20041;-62
2024/01/04 11:19:31;;;;;;;12.10;10.68;;;;;;;;;;4163258;28;20291;-62
2024/01/04 11:21:51;;;;;;;11.57;10.10;;;;;;;;;;4163084;28;20033;-61
2024/01/04 11:24:03;;;;;;;10.80;8.68;;;;;;;;;;4163956;28;20037;-61
2024/01/04 11:26:08;;;;;;;9.35;8.77;;;;;;;;;;4162515;28;20038;-61
2024/01/04 11:28:10;;;;;;;12.70;11.40;;;;;;;;;;4163273;28;20041;-62
2024/01/04 11:30:12;;;;;;;9.30;8.55;;;;;;;;;;4163156;28;20488;-61
2024/01/04 11:32:15;;;;;;;7.15;6.70;;;;;;;;;;4163414;28;20042;-61
2024/01/04 11:34:18;;;;;;;4.40;3.65;;;;;;;;;;4051841;28;182283;-62
2024/01/04 11:36:20;;;;;;;9.27;3.92;;;;;;;;;;4125351;28;20038;-62
2024/01/04 11:38:30;;;;;;;4.85;2.72;;;;;;;;;;4129325;28;20042;-63
2024/01/04 11:40:32;;;;;;;3.72;2.40;;;;;;;;;;4128541;28;20030;-62
2024/01/04 11:42:40;;;;;;;5.40;2.42;;;;;;;;;;4125186;28;20162;-62
2024/01/04 11:44:47;;;;;;;5.47;2.75;;;;;;;;;;4130891;28;20514;-62
2024/01/04 11:46:53;;;;;;;4.07;2.20;;;;;;;;;;4131309;28;20049;-62
2024/01/04 11:48:56;;;;;;;4.35;3.13;;;;;;;;;;4131064;28;20498;-62
2024/01/04 11:51:01;;;;;;;4.45;3.58;;;;;;;;;;4130862;28;20063;-62
2024/01/04 11:53:03;;;;;;;9.35;3.60;;;;;;;;;;4135171;28;20410;-62
2024/01/04 11:55:05;;;;;;;3.83;2.65;;;;;;;;;;4131723;28;20038;-61